Decoded Metar for KPIB (PINE BELT RGNL in MS, USA) (IATA:PIB) | Meteo·Mobile Aviation Weather
aviador You're here:

KPIB Decoded Metar

PINE BELT RGNL in MS, USA
Report Time2018-11-19 20:56:00
UTC Time2018-11-19 21:58:52
Flight Rules vfr VFR
WindCalm
Visibility9999 m
Phenomena:N/A
Clouds:Few 100 Hf
Expected CloudBase > 3,200 ft AGL from Temp-Dew spread
CeilingNone
Temp20°C (ISA +6)
Dew Point12°C (60% RH)
QNH1019 hPa
Density Alt942 ft
Elevation299 ft
Report Wrong Elevation
Raw Report
KPIB 192056Z AUTO 00000KT 10SM FEW100 20/12 A3010 RMK AO2 SLP193
T02000117 58022=

Extra information for KPIB:More info

Metar Taf Metar & Taf Last 4 Metars F.Rules Stats Wind Profile Meteogram Temp Stats Airport Information Weather charts Add Link Nearby VenuesMetar ALERT Operation Metar Decoded Social comments

AIRNAV info for KPIB